MDT,Max TemperatureF,Mean TemperatureF,Min TemperatureF,Max Dew PointF,MeanDew PointF,Min DewpointF,Max Humidity, Mean Humidity, Min Humidity, Max Sea Level PressureIn, Mean Sea Level PressureIn, Min Sea Level PressureIn, Max VisibilityMiles, Mean VisibilityMiles, Min VisibilityMiles, Max Wind SpeedMPH, Mean Wind SpeedMPH, Max Gust SpeedMPH,PrecipitationIn, CloudCover, Events, WindDirDegrees
2011-10-1,91,68,46,41,36,32,62,36,15,29.98,29.93,29.88,10,10,8,12,8,,0.00,0,,157
2011-10-2,82,66,51,45,39,34,54,35,24,29.92,29.89,29.86,10,10,9,15,7,,0.00,0,,275
2011-10-3,82,66,50,48,46,43,76,51,28,30.08,30.02,29.96,10,10,9,16,7,,0.00,0,,47
2011-10-4,91,71,51,48,46,41,82,51,18,29.95,29.79,29.62,10,10,9,23,10,31,0.00,0,,93
2011-10-5,82,68,55,45,41,37,51,37,25,29.58,29.53,29.45,10,10,10,12,6,,0.00,0,,186
2011-10-6,73,65,57,52,48,43,82,52,43,29.49,29.46,29.44,10,10,10,18,9,24,0.00,3,Thunderstorm,131
2011-10-7,57,52,48,55,48,45,94,88,77,29.58,29.34,29.22,10,9,0,32,10,44,0.47,7,,206
2011-10-8,57,52,46,45,40,34,82,68,44,30.21,30.08,29.86,10,10,10,20,14,24,0.00,4,,306
2011-10-9,55,44,33,39,35,30,93,70,44,30.27,30.19,30.02,10,10,10,13,5,17,0.00,2,,101
2011-10-10,64,50,37,43,37,32,93,70,32,29.91,29.78,29.69,10,10,4,15,3,21,0.00,0,,249
2011-10-11,69,53,37,45,37,32,81,57,30,29.69,29.64,29.62,10,10,10,16,8,21,0.00,3,,213
2011-10-12,64,53,42,37,34,30,71,52,28,29.92,29.86,29.74,10,10,10,26,14,37,0.00,0,,284
2011-10-13,59,50,41,34,30,28,65,50,36,29.99,29.93,29.90,10,10,10,26,16,36,0.00,1,,292
2011-10-14,55,44,32,30,26,19,87,55,26,30.09,30.04,29.99,10,10,10,17,12,24,0.00,0,,302
2011-10-15,46,42,37,39,34,28,93,71,53,30.06,29.94,29.87,10,10,8,13,4,,0.00,6,,312
2011-10-16,53,40,26,32,26,18,93,60,26,30.13,30.07,30.01,10,10,10,13,7,17,0.00,1,,285
2011-10-17,55,42,28,28,24,19,74,48,25,30.22,30.14,30.03,10,10,8,22,9,29,0.00,2,,303
2011-10-18,57,42,28,28,26,23,80,54,29,30.32,30.24,30.19,10,10,10,18,9,24,0.00,1,,307
2011-10-19,60,43,26,30,27,21,93,57,29,30.19,30.06,29.93,10,10,10,15,5,17,0.00,0,,143
2011-10-20,68,50,32,37,31,25,81,56,30,29.93,29.89,29.86,10,10,10,17,9,22,0.00,0,,209
2011-10-21,62,48,35,37,34,28,81,61,34,30.11,30.06,29.96,10,10,10,12,7,17,0.00,1,,297
2011-10-22,66,50,33,39,32,27,93,60,24,30.05,29.97,29.90,10,10,10,29,9,33,0.00,2,,229
2011-10-23,62,48,35,41,32,25,93,56,25,30.01,29.92,29.87,10,10,10,25,10,39,0.00,2,,290
2011-10-24,42,36,30,39,31,21,93,75,57,30.05,29.98,29.91,10,10,8,9,4,,0.11,6,,25
2011-10-25,44,36,28,39,32,23,93,83,66,30.25,30.12,30.00,10,10,9,23,8,30,0.05,5,,292
2011-10-26,46,37,28,30,24,18,93,66,32,30.26,30.19,30.06,10,10,10,13,8,17,0.00,2,,281
2011-10-27,50,38,26,30,24,21,86,62,37,30.08,29.98,29.92,10,10,10,22,11,29,0.00,1,,262
2011-10-28,51,36,21,27,20,16,86,55,24,30.19,30.09,29.84,10,10,10,13,4,18,0.00,0,,193
2011-10-29,57,47,37,36,26,19,66,47,33,29.91,29.77,29.69,10,10,10,32,14,43,0.00,5,,251
2011-10-30,53,38,24,25,22,18,86,52,24,30.08,29.98,29.83,10,10,10,14,8,21,0.00,0,,256
2011-10-31,64,48,32,39,30,21,75,55,37,29.95,29.79,29.72,10,10,3,36,10,43,0.02,4,,229